Time;durP1;ratioP1;P1;durP2;ratioP2;P2;SDS_P1;SDS_P2;PMS_P1;PMS_P2;Temp;Humidity;BMP_temperature;BMP_pressure;BME280_temperature;BME280_humidity;BME280_pressure;Samples;Min_cycle;Max_cycle;Signal;HPM_P1;HPM_P2
2023/08/25 00:00:36;;;;;;;27.88;21.55;;;;;;;-142.75;100.00;75086.34;5029793;28;20380;-63
2023/08/25 00:03:05;;;;;;;30.15;20.38;;;;;;;-142.75;100.00;75086.34;5024811;28;20055;-68
2023/08/25 00:05:37;;;;;;;28.77;20.85;;;;;;;-142.75;100.00;75088.31;5029760;28;20025;-62
2023/08/25 00:08:03;;;;;;;27.98;20.95;;;;;;;-142.75;100.00;75092.25;5043948;28;20111;-59
2023/08/25 00:10:28;;;;;;;32.40;20.30;;;;;;;-142.75;100.00;75088.31;5044041;28;20104;-63
2023/08/25 00:12:53;;;;;;;30.73;22.38;;;;;;;-142.75;100.00;75086.34;5039038;28;20048;-63
2023/08/25 00:15:18;;;;;;;32.85;22.08;;;;;;;-142.75;100.00;75070.59;5023667;28;20025;-63
2023/08/25 00:17:44;;;;;;;35.15;22.23;;;;;;;-142.75;100.00;75058.78;5024209;28;20029;-63
2023/08/25 00:20:12;;;;;;;34.17;23.52;;;;;;;-142.75;100.00;75052.88;5024018;28;20029;-63
2023/08/25 00:22:40;;;;;;;29.90;22.92;;;;;;;-142.75;100.00;75052.88;5027803;28;20389;-63
2023/08/25 00:25:07;;;;;;;31.10;22.73;;;;;;;-142.75;100.00;75048.94;5045317;28;20024;-63
2023/08/25 00:27:32;;;;;;;34.53;23.38;;;;;;;-142.75;100.00;75039.13;5034245;28;20511;-63
2023/08/25 00:29:57;;;;;;;38.83;25.10;;;;;;;-142.75;100.00;75046.97;5028281;28;20018;-63
2023/08/25 00:32:23;;;;;;;35.42;25.45;;;;;;;-142.75;100.00;75050.91;5027438;28;20384;-63
2023/08/25 00:34:48;;;;;;;38.05;25.80;;;;;;;-142.75;100.00;75056.81;5027187;28;20484;-63
2023/08/25 00:37:14;;;;;;;39.00;25.60;;;;;;;-142.75;100.00;75064.69;5031655;28;20029;-63
2023/08/25 00:39:39;;;;;;;35.88;25.25;;;;;;;-142.75;100.00;75070.59;5046906;28;20013;-63
2023/08/25 00:42:05;;;;;;;39.38;26.77;;;;;;;-142.75;100.00;75082.41;5028742;28;20023;-62
2023/08/25 00:44:30;;;;;;;39.47;25.25;;;;;;;-142.75;100.00;75090.28;5046934;28;20023;-63
2023/08/25 00:46:56;;;;;;;37.38;24.42;;;;;;;-142.75;100.00;75090.28;5047077;28;20032;-63
2023/08/25 00:49:23;;;;;;;39.95;26.20;;;;;;;-142.75;100.00;75080.44;5047001;28;20100;-63
2023/08/25 00:51:50;;;;;;;39.63;27.30;;;;;;;-142.75;100.00;75078.47;5035655;28;20024;-63
2023/08/25 00:54:16;;;;;;;37.17;23.95;;;;;;;-142.75;100.00;75082.41;5046877;28;20013;-63
2023/08/25 00:56:42;;;;;;;37.10;23.45;;;;;;;-142.75;100.00;75078.47;5033303;28;20028;-63
2023/08/25 00:59:08;;;;;;;38.47;23.42;;;;;;;-142.75;100.00;75080.44;5027258;28;20017;-63
2023/08/25 01:01:35;;;;;;;31.75;22.75;;;;;;;-142.75;100.00;75080.44;5027057;28;20029;-63
2023/08/25 01:04:00;;;;;;;38.40;26.05;;;;;;;-142.75;100.00;75082.41;5027184;28;20102;-63
2023/08/25 01:06:25;;;;;;;41.25;26.98;;;;;;;-142.75;100.00;75090.28;5040116;28;20503;-63
2023/08/25 01:08:51;;;;;;;38.80;25.60;;;;;;;-142.75;100.00;75076.50;5045546;28;20024;-63
2023/08/25 01:11:44;;;;;;;41.20;25.63;;;;;;;-142.75;100.00;75068.63;5046121;28;20032;-63
2023/08/25 01:14:34;;;;;;;40.92;26.95;;;;;;;-142.75;100.00;75060.75;5036958;28;20231;-63
2023/08/25 01:17:09;;;;;;;40.38;26.27;;;;;;;-142.75;100.00;75054.84;5044288;28;20036;-63
2023/08/25 01:19:53;;;;;;;41.08;26.75;;;;;;;-142.75;100.00;75074.53;5046237;28;20024;-64
2023/08/25 01:22:37;;;;;;;38.75;26.23;;;;;;;-142.75;100.00;75078.47;5025813;28;20013;-63
2023/08/25 01:25:25;;;;;;;43.42;27.38;;;;;;;-142.75;100.00;75078.47;5028121;28;20415;-63
2023/08/25 01:27:51;;;;;;;41.45;27.60;;;;;;;-142.75;100.00;75078.47;5033238;28;20648;-63
2023/08/25 01:30:17;;;;;;;40.70;27.02;;;;;;;-142.75;100.00;75076.50;5046768;28;20468;-63
2023/08/25 01:32:42;;;;;;;40.17;28.30;;;;;;;-142.75;100.00;75092.25;5045829;28;20023;-63
2023/08/25 01:35:09;;;;;;;48.78;31.30;;;;;;;-142.75;100.00;75092.25;5035063;28;20083;-63
2023/08/25 01:37:41;;;;;;;42.67;28.35;;;;;;;-142.75;100.00;75094.22;5026333;28;20096;-63
2023/08/25 01:40:17;;;;;;;42.08;28.48;;;;;;;-142.75;100.00;75098.16;5026218;28;20029;-64
2023/08/25 01:42:45;;;;;;;43.90;30.33;;;;;;;-142.75;100.00;75104.03;5045132;28;20048;-63
2023/08/25 01:45:11;;;;;;;52.50;31.92;;;;;;;-142.75;100.00;75119.78;5044240;28;20131;-66
2023/08/25 01:47:40;;;;;;;48.00;31.17;;;;;;;-142.75;100.00;75104.03;5045815;28;20021;-64
2023/08/25 01:50:09;;;;;;;53.00;32.10;;;;;;;-142.75;100.00;75098.16;5044520;28;20075;-65
2023/08/25 01:52:35;;;;;;;45.38;29.83;;;;;;;-142.75;100.00;75098.16;5045659;28;20032;-64
2023/08/25 01:55:01;;;;;;;45.92;29.23;;;;;;;-142.75;100.00;75094.22;5045185;28;20476;-64
2023/08/25 01:57:27;;;;;;;47.78;31.10;;;;;;;-142.75;100.00;75088.31;5044674;28;20075;-63
2023/08/25 01:59:53;;;;;;;47.05;31.45;;;;;;;-142.75;100.00;75090.28;5027309;28;20029;-63
2023/08/25 02:02:18;;;;;;;52.53;32.28;;;;;;;-142.75;100.00;75088.31;5043191;28;20029;-63
2023/08/25 02:04:43;;;;;;;51.58;31.17;;;;;;;-142.75;100.00;75090.28;5045244;28;20025;-63
2023/08/25 02:07:09;;;;;;;46.13;30.63;;;;;;;-142.75;100.00;75092.25;5045737;28;20106;-63
2023/08/25 02:09:34;;;;;;;51.92;31.67;;;;;;;-142.75;100.00;75109.94;5045064;28;20041;-63
2023/08/25 02:12:00;;;;;;;51.78;32.45;;;;;;;-142.75;100.00;75109.94;5045578;28;20017;-63
2023/08/25 02:14:26;;;;;;;44.63;29.52;;;;;;;-142.75;100.00;75104.03;5045086;28;20059;-63
2023/08/25 02:16:51;;;;;;;49.45;31.48;;;;;;;-142.75;100.00;75106.00;5026318;28;20028;-63
2023/08/25 02:19:17;;;;;;;51.63;32.03;;;;;;;-142.75;100.00;75109.94;5025460;28;20025;-63
2023/08/25 02:21:42;;;;;;;51.25;31.42;;;;;;;-142.75;100.00;75106.00;5026688;28;20238;-63
2023/08/25 02:24:07;;;;;;;56.35;32.25;;;;;;;-142.75;100.00;75098.16;5036201;28;20082;-63
2023/08/25 02:26:32;;;;;;;53.15;31.98;;;;;;;-142.75;100.00;75084.38;5039289;28;20078;-63
2023/08/25 02:28:58;;;;;;;50.53;31.10;;;;;;;-142.75;100.00;75078.47;5045331;28;20603;-63
2023/08/25 02:31:23;;;;;;;51.60;31.00;;;;;;;-142.75;100.00;75088.31;5031915;28;20677;-63
2023/08/25 02:33:49;;;;;;;50.10;30.15;;;;;;;-142.75;100.00;75078.47;5025057;28;20051;-63
2023/08/25 02:36:14;;;;;;;48.42;29.92;;;;;;;-142.75;100.00;75066.66;5025170;28;20184;-63
2023/08/25 02:38:39;;;;;;;50.78;30.10;;;;;;;-142.75;100.00;75060.75;5043410;28;20515;-63
2023/08/25 02:41:04;;;;;;;52.05;30.13;;;;;;;-142.75;100.00;75074.53;5044887;28;20044;-62
2023/08/25 02:43:30;;;;;;;48.33;27.35;;;;;;;-142.75;100.00;75064.69;5045047;28;20095;-63
2023/08/25 02:45:58;;;;;;;48.85;30.33;;;;;;;-142.75;100.00;75052.88;5039573;28;20190;-63
2023/08/25 02:48:23;;;;;;;52.13;29.42;;;;;;;-142.75;100.00;75056.81;5024706;28;20108;-63
2023/08/25 02:50:49;;;;;;;51.90;30.80;;;;;;;-142.75;100.00;75052.88;5024978;28;20144;-63
2023/08/25 02:53:14;;;;;;;49.78;29.48;;;;;;;-142.75;100.00;75052.88;5024901;28;20021;-63
2023/08/25 02:55:39;;;;;;;47.28;29.08;;;;;;;-142.75;100.00;75048.94;5024796;28;20075;-63
2023/08/25 02:58:05;;;;;;;45.25;27.55;;;;;;;-142.75;100.00;75031.25;5034116;28;20025;-63
2023/08/25 03:00:30;;;;;;;41.45;26.60;;;;;;;-142.75;100.00;75025.34;5045033;28;20036;-62
2023/08/25 03:02:56;;;;;;;46.58;28.98;;;;;;;-142.75;100.00;75033.22;5043216;28;20170;-63
2023/08/25 03:05:22;;;;;;;47.35;29.92;;;;;;;-142.75;100.00;75041.09;5026969;28;20017;-63
2023/08/25 03:07:50;;;;;;;44.90;27.92;;;;;;;-142.75;100.00;75037.16;5026943;28;20032;-63
2023/08/25 03:10:16;;;;;;;49.90;30.02;;;;;;;-142.75;100.00;75035.19;5044164;28;20009;-63
2023/08/25 03:12:42;;;;;;;48.08;29.48;;;;;;;-142.75;100.00;75029.28;5044379;28;20047;-63
2023/08/25 03:15:08;;;;;;;51.20;29.85;;;;;;;-142.75;100.00;75023.38;5025347;28;20013;-63
2023/08/25 03:17:34;;;;;;;49.28;28.88;;;;;;;-142.75;100.00;75021.41;5024673;28;20551;-63
2023/08/25 03:19:59;;;;;;;48.65;28.73;;;;;;;-142.75;100.00;75021.41;5024916;28;20017;-63
2023/08/25 03:22:24;;;;;;;47.67;28.60;;;;;;;-142.75;100.00;75027.31;5024484;28;20469;-63
2023/08/25 03:24:50;;;;;;;50.88;29.00;;;;;;;-142.75;100.00;75027.31;5037306;28;20128;-63
2023/08/25 03:27:15;;;;;;;46.15;27.77;;;;;;;-142.75;100.00;75023.38;5044228;28;20070;-63
2023/08/25 03:29:43;;;;;;;48.40;27.98;;;;;;;-142.75;100.00;75017.47;5025694;28;20021;-63
2023/08/25 03:32:09;;;;;;;49.75;27.98;;;;;;;-142.75;100.00;75019.44;5024618;28;20535;-62
2023/08/25 03:34:34;;;;;;;50.30;28.48;;;;;;;-142.75;100.00;75021.41;5024289;28;20017;-63
2023/08/25 03:37:00;;;;;;;48.30;28.77;;;;;;;-142.75;100.00;75011.56;5035031;28;20023;-63
2023/08/25 03:39:26;;;;;;;47.13;28.63;;;;;;;-142.75;100.00;75015.50;5044313;28;20025;-63
2023/08/25 03:41:51;;;;;;;51.15;28.70;;;;;;;-142.75;100.00;75023.38;5034303;28;20424;-63
2023/08/25 03:44:17;;;;;;;46.63;28.70;;;;;;;-142.75;100.00;75021.41;5040931;28;20029;-63
2023/08/25 03:46:42;;;;;;;46.47;28.52;;;;;;;-142.75;100.00;75019.44;5031197;28;20096;-63
2023/08/25 03:49:09;;;;;;;53.40;31.05;;;;;;;-142.75;100.00;75027.31;5041713;28;20120;-63
2023/08/25 03:51:34;;;;;;;52.25;29.38;;;;;;;-142.75;100.00;75025.34;5043850;28;20017;-62
2023/08/25 03:54:00;;;;;;;46.45;27.75;;;;;;;-142.75;100.00;75011.56;5044381;28;20531;-63
2023/08/25 03:56:25;;;;;;;44.40;27.35;;;;;;;-142.75;100.00;75011.56;5044224;28;20668;-62
2023/08/25 03:58:50;;;;;;;50.47;28.17;;;;;;;-142.75;100.00;75015.50;5042244;28;20049;-63
2023/08/25 04:01:16;;;;;;;56.20;30.65;;;;;;;-142.75;100.00;75027.31;5048223;28;20036;-63
2023/08/25 04:03:41;;;;;;;48.33;30.30;;;;;;;-142.75;100.00;75027.31;5047733;28;20059;-63
2023/08/25 04:06:06;;;;;;;49.15;29.15;;;;;;;-142.75;100.00;75025.34;5046351;28;20024;-63
2023/08/25 04:08:32;;;;;;;48.88;28.67;;;;;;;-142.75;100.00;75027.31;5033717;28;20148;-62
2023/08/25 04:10:57;;;;;;;52.25;28.65;;;;;;;-142.75;100.00;75013.53;5047620;28;20017;-63
2023/08/25 04:13:23;;;;;;;55.05;30.38;;;;;;;-142.75;100.00;75009.59;5041505;28;20025;-63
2023/08/25 04:15:56;;;;;;;49.17;29.23;;;;;;;-142.75;100.00;75003.69;5027523;28;20021;-63
2023/08/25 04:18:23;;;;;;;54.30;30.95;;;;;;;-142.75;100.00;75019.44;5039368;28;20024;-63
2023/08/25 04:20:48;;;;;;;53.22;28.45;;;;;;;-142.75;100.00;75003.69;5040670;28;20024;-63
2023/08/25 04:23:13;;;;;;;50.47;29.15;;;;;;;-142.75;100.00;74997.78;5027781;28;20025;-63
2023/08/25 04:25:39;;;;;;;50.42;28.85;;;;;;;-142.75;100.00;74995.81;5027263;28;20122;-63
2023/08/25 04:28:04;;;;;;;52.40;28.65;;;;;;;-142.75;100.00;74984.00;5045995;28;20048;-63
2023/08/25 04:30:30;;;;;;;50.88;29.35;;;;;;;-142.75;100.00;74991.88;5030879;28;20024;-63
2023/08/25 04:32:55;;;;;;;56.15;31.48;;;;;;;-142.75;100.00;74987.94;5043576;28;20392;-63
2023/08/25 04:35:21;;;;;;;56.10;30.20;;;;;;;-142.75;100.00;74991.88;5030577;28;20037;-63
2023/08/25 04:37:47;;;;;;;53.45;29.77;;;;;;;-142.75;100.00;74999.75;5027561;28;20543;-63
2023/08/25 04:40:15;;;;;;;49.70;28.50;;;;;;;-142.75;100.00;74999.75;5029029;28;20104;-63
2023/08/25 04:42:41;;;;;;;49.15;29.80;;;;;;;-142.75;100.00;74995.81;5046936;28;20565;-61
2023/08/25 04:45:09;;;;;;;55.90;29.98;;;;;;;-142.75;100.00;74987.94;5046946;28;20111;-63
2023/08/25 04:47:34;;;;;;;49.13;28.48;;;;;;;-142.75;100.00;74991.88;5025990;28;20044;-63
2023/08/25 04:50:03;;;;;;;48.72;28.85;;;;;;;-142.75;100.00;74982.03;5027333;28;20009;-63
2023/08/25 04:52:29;;;;;;;51.65;27.25;;;;;;;-142.75;100.00;74985.97;5027175;28;20025;-63
2023/08/25 04:54:55;;;;;;;50.17;27.98;;;;;;;-142.75;100.00;74985.97;5026803;28;20026;-63
2023/08/25 04:57:20;;;;;;;48.65;26.10;;;;;;;-142.75;100.00;74989.91;5027096;28;20025;-63
2023/08/25 04:59:45;;;;;;;46.03;24.55;;;;;;;-142.75;100.00;74987.94;5040959;28;20025;-63
2023/08/25 05:02:11;;;;;;;42.72;24.65;;;;;;;-142.75;100.00;74995.81;5027555;28;20045;-63
2023/08/25 05:04:36;;;;;;;52.38;29.17;;;;;;;-142.75;100.00;74997.78;5033573;28;20139;-63
2023/08/25 05:07:02;;;;;;;50.13;28.63;;;;;;;-142.75;100.00;75003.69;5046742;28;20052;-62
2023/08/25 05:09:28;;;;;;;58.53;31.65;;;;;;;-142.75;100.00;75011.56;5045463;28;20020;-63
2023/08/25 05:11:53;;;;;;;54.55;31.80;;;;;;;-142.75;100.00;75007.63;5046398;28;20468;-63
2023/08/25 05:14:18;;;;;;;57.53;32.55;;;;;;;-142.75;100.00;75007.63;5046248;28;20021;-63
2023/08/25 05:16:43;;;;;;;53.22;30.02;;;;;;;-142.75;100.00;75017.47;5046242;28;20017;-63
2023/08/25 05:19:11;;;;;;;51.10;28.67;;;;;;;-142.75;100.00;75005.66;5046347;28;20553;-63
2023/08/25 05:21:37;;;;;;;57.47;31.00;;;;;;;-142.75;100.00;75003.69;5046229;28;20021;-62
2023/08/25 05:24:26;;;;;;;60.20;30.63;;;;;;;-142.75;100.00;74976.16;5046265;28;20013;-60
2023/08/25 05:26:52;;;;;;;59.92;29.85;;;;;;;-142.75;100.00;74974.19;5026115;28;20439;-63
2023/08/25 05:29:24;;;;;;;54.17;29.75;;;;;;;-142.75;100.00;74960.41;5025030;28;20056;-63
2023/08/25 05:31:51;;;;;;;57.45;31.70;;;;;;;-142.75;100.00;74964.34;5026873;28;20346;-63
2023/08/25 05:34:17;;;;;;;59.40;30.75;;;;;;;-142.75;100.00;74964.34;5026274;28;20431;-63
2023/08/25 05:36:43;;;;;;;58.28;31.20;;;;;;;-142.75;100.00;74960.41;5026270;28;20022;-63
2023/08/25 05:39:08;;;;;;;59.63;31.77;;;;;;;-142.75;100.00;74956.47;5026662;28;20109;-62
2023/08/25 05:41:34;;;;;;;56.30;31.70;;;;;;;-142.75;100.00;74954.50;5026360;28;20104;-62
2023/08/25 05:44:03;;;;;;;55.70;31.58;;;;;;;-142.75;100.00;74942.69;5026693;28;20025;-63
2023/08/25 05:46:30;;;;;;;56.15;30.60;;;;;;;-142.75;100.00;74940.72;5026848;28;20124;-63
2023/08/25 05:48:57;;;;;;;52.63;29.05;;;;;;;-142.75;100.00;74932.84;5026656;28;20068;-62
2023/08/25 05:51:24;;;;;;;50.75;29.77;;;;;;;-142.75;100.00;74919.09;5026721;28;20635;-61
2023/08/25 05:53:49;;;;;;;52.97;29.25;;;;;;;-142.75;100.00;74917.13;5026325;28;20048;-62
2023/08/25 05:56:15;;;;;;;50.28;28.80;;;;;;;-142.75;100.00;74917.13;5026441;28;20096;-62
2023/08/25 05:58:42;;;;;;;48.35;28.38;;;;;;;-142.75;100.00;74905.31;5026197;28;20504;-62
2023/08/25 06:01:07;;;;;;;52.20;29.15;;;;;;;-142.75;100.00;74897.44;5026763;28;20113;-62
2023/08/25 06:03:33;;;;;;;50.90;28.60;;;;;;;-142.75;100.00;74901.38;5026829;28;20556;-63
2023/08/25 06:05:58;;;;;;;51.90;29.73;;;;;;;-142.75;100.00;74899.41;5026319;28;20021;-63
2023/08/25 06:08:23;;;;;;;53.13;30.13;;;;;;;-142.75;100.00;74889.56;5028793;28;20486;-63
2023/08/25 06:10:52;;;;;;;50.55;29.25;;;;;;;-142.75;100.00;74877.75;5045773;28;20027;-66
2023/08/25 06:13:18;;;;;;;52.67;29.25;;;;;;;-142.75;100.00;74877.75;5029693;28;20401;-63
2023/08/25 06:15:43;;;;;;;52.28;28.92;;;;;;;-142.75;100.00;74881.69;5025744;28;20138;-63
2023/08/25 06:18:09;;;;;;;52.33;29.25;;;;;;;-142.75;100.00;74891.53;5026256;28;20509;-62
2023/08/25 06:20:35;;;;;;;54.60;29.60;;;;;;;-142.75;100.00;74899.41;5025628;28;20056;-62
2023/08/25 06:23:00;;;;;;;52.28;27.23;;;;;;;-142.75;100.00;74901.38;5026412;28;20029;-62
2023/08/25 06:25:26;;;;;;;51.13;28.27;;;;;;;-142.75;100.00;74901.38;5025216;28;20485;-63
2023/08/25 06:27:51;;;;;;;47.95;27.30;;;;;;;-142.75;100.00;74893.50;5025558;28;20280;-62
2023/08/25 06:30:17;;;;;;;53.15;28.85;;;;;;;-142.75;100.00;74899.41;5026518;28;20052;-62
2023/08/25 06:32:43;;;;;;;52.92;28.05;;;;;;;-142.75;100.00;74887.59;5026239;28;20037;-62
2023/08/25 06:35:11;;;;;;;53.95;27.50;;;;;;;-142.75;100.00;74865.97;5024554;28;20029;-62
2023/08/25 06:37:36;;;;;;;49.92;28.13;;;;;;;-142.75;100.00;74877.75;5025694;28;20446;-62
2023/08/25 06:40:06;;;;;;;48.25;26.42;;;;;;;-142.75;100.00;74860.06;5025834;28;20124;-63
2023/08/25 06:42:32;;;;;;;36.65;21.83;;;;;;;-142.75;100.00;74856.13;5025366;28;20401;-62
2023/08/25 06:44:58;;;;;;;42.88;22.77;;;;;;;-142.75;100.00;74858.09;5025536;28;20029;-62
2023/08/25 06:47:24;;;;;;;36.55;21.45;;;;;;;-142.75;100.00;74871.84;5025480;28;20061;-62
2023/08/25 06:49:50;;;;;;;37.47;19.30;;;;;;;-142.75;100.00;74881.69;5025416;28;20028;-63
2023/08/25 06:52:15;;;;;;;44.00;18.35;;;;;;;-142.75;100.00;74897.44;5036406;28;20029;-62
2023/08/25 06:54:40;;;;;;;32.35;17.65;;;;;;;-142.75;100.00;74887.59;5045046;28;20056;-63
2023/08/25 06:57:07;;;;;;;26.92;16.83;;;;;;;-142.75;100.00;74905.31;5045170;28;20035;-62
2023/08/25 06:59:32;;;;;;;24.48;15.38;;;;;;;-142.75;100.00;74905.31;5045262;28;20025;-63
2023/08/25 07:01:57;;;;;;;31.17;15.20;;;;;;;-142.75;100.00;74913.19;5045989;28;20040;-63
2023/08/25 07:04:23;;;;;;;27.42;16.63;;;;;;;-142.75;100.00;74901.38;5045101;28;20025;-62
2023/08/25 07:06:48;;;;;;;30.40;17.95;;;;;;;-142.75;100.00;74901.38;5044236;28;20032;-62
2023/08/25 07:09:14;;;;;;;25.92;17.00;;;;;;;-142.75;100.00;74921.06;5044397;28;20052;-62
2023/08/25 07:11:40;;;;;;;28.23;16.55;;;;;;;-142.75;100.00;74921.06;5044717;28;20465;-62
2023/08/25 07:14:05;;;;;;;28.95;17.83;;;;;;;-142.75;100.00;74913.19;5044787;28;20120;-61
2023/08/25 07:16:30;;;;;;;31.98;17.80;;;;;;;-142.75;100.00;74907.28;5044828;28;20032;-63
2023/08/25 07:18:56;;;;;;;30.73;18.10;;;;;;;-142.75;100.00;74891.53;5045104;28;20024;-62
2023/08/25 07:21:22;;;;;;;30.92;18.05;;;;;;;-142.75;100.00;74911.22;5045034;28;20021;-63
2023/08/25 07:23:47;;;;;;;27.30;18.80;;;;;;;-142.75;100.00;74909.25;5044715;28;20074;-63
2023/08/25 07:26:13;;;;;;;27.73;17.90;;;;;;;-142.75;100.00;74917.13;5044553;28;20028;-62
2023/08/25 07:28:38;;;;;;;33.92;18.95;;;;;;;-142.75;100.00;74921.06;5043730;28;20048;-63
2023/08/25 07:31:04;;;;;;;30.33;18.33;;;;;;;-142.75;100.00;74913.19;5045544;28;20377;-63
2023/08/25 07:33:29;;;;;;;28.65;16.55;;;;;;;-142.75;100.00;74897.44;5043413;28;20029;-62
2023/08/25 07:35:57;;;;;;;30.52;17.95;;;;;;;-142.75;100.00;74881.69;5028520;28;20032;-62
2023/08/25 07:38:22;;;;;;;30.85;17.40;;;;;;;-142.75;100.00;74903.34;5028710;28;20041;-63
2023/08/25 07:40:48;;;;;;;35.15;18.48;;;;;;;-142.75;100.00;74905.31;5028676;28;20530;-63
2023/08/25 07:43:13;;;;;;;30.10;18.52;;;;;;;-142.75;100.00;74923.03;5029192;28;20059;-64
2023/08/25 07:45:38;;;;;;;32.80;18.58;;;;;;;-142.75;100.00;74919.09;5039523;28;20035;-63
2023/08/25 07:48:04;;;;;;;29.50;19.20;;;;;;;-142.75;100.00;74936.78;5043188;28;20082;-64
2023/08/25 07:50:30;;;;;;;30.70;17.83;;;;;;;-142.75;100.00;74928.91;5048997;28;20032;-63
2023/08/25 07:52:57;;;;;;;33.75;18.58;;;;;;;-142.75;100.00;74919.09;5047408;28;20021;-63
2023/08/25 07:55:23;;;;;;;34.72;19.15;;;;;;;-142.75;100.00;74921.06;5037183;28;20536;-63
2023/08/25 07:57:49;;;;;;;32.33;18.38;;;;;;;-142.75;100.00;74913.19;5036576;28;20451;-63
2023/08/25 08:00:18;;;;;;;28.60;17.63;;;;;;;-142.75;100.00;74913.19;5035252;28;20025;-63
2023/08/25 08:02:45;;;;;;;28.10;17.58;;;;;;;-142.75;100.00;74934.81;5041529;28;20072;-64
2023/08/25 08:05:10;;;;;;;31.33;17.27;;;;;;;-142.75;100.00;74936.78;5029118;28;20302;-63
2023/08/25 08:07:36;;;;;;;27.02;16.02;;;;;;;-142.75;100.00;74930.88;5024083;28;20037;-63
2023/08/25 08:10:03;;;;;;;27.15;16.80;;;;;;;-142.75;100.00;74944.66;5028734;28;20551;-63
2023/08/25 08:12:29;;;;;;;27.23;17.20;;;;;;;-142.75;100.00;74932.84;5027058;28;20111;-64
2023/08/25 08:14:54;;;;;;;24.52;15.65;;;;;;;-142.75;100.00;74940.72;5027067;28;20120;-63
2023/08/25 08:17:20;;;;;;;24.27;16.50;;;;;;;-142.75;100.00;74930.88;5027595;28;20037;-64
2023/08/25 08:19:46;;;;;;;24.45;16.85;;;;;;;-142.75;100.00;74907.28;5027583;28;20025;-64
2023/08/25 08:22:11;;;;;;;32.05;18.02;;;;;;;-142.75;100.00;74915.16;5027701;28;20615;-63
2023/08/25 08:24:37;;;;;;;25.95;17.25;;;;;;;-142.75;100.00;74909.25;5026991;28;20119;-63
2023/08/25 08:27:02;;;;;;;25.88;16.63;;;;;;;-142.75;100.00;74938.75;5028373;28;20212;-62
2023/08/25 08:29:28;;;;;;;26.05;16.90;;;;;;;-142.75;100.00;74936.78;5028209;28;20033;-63
2023/08/25 08:31:55;;;;;;;30.85;17.33;;;;;;;-142.75;100.00;74958.44;5029291;28;20030;-63
2023/08/25 08:34:21;;;;;;;32.03;17.08;;;;;;;-142.75;100.00;74964.34;5028890;28;20112;-63
2023/08/25 08:36:47;;;;;;;34.33;18.67;;;;;;;-142.75;100.00;74968.28;5029197;28;20025;-63
2023/08/25 08:39:13;;;;;;;30.85;18.02;;;;;;;-142.75;100.00;74964.34;5028110;28;20021;-63
2023/08/25 08:41:38;;;;;;;30.50;18.55;;;;;;;-142.75;100.00;74964.34;5029647;28;20041;-62
2023/08/25 08:44:05;;;;;;;28.13;17.35;;;;;;;-142.75;100.00;74942.69;5028306;28;20035;-63
2023/08/25 08:46:33;;;;;;;26.85;18.35;;;;;;;-142.75;100.00;74968.28;5027213;28;20156;-63
2023/08/25 08:48:59;;;;;;;29.10;18.27;;;;;;;-142.75;100.00;74960.41;5028920;28;20036;-63
2023/08/25 08:51:25;;;;;;;29.17;18.13;;;;;;;-142.75;100.00;74936.78;5027940;28;20420;-63
2023/08/25 08:53:52;;;;;;;29.75;20.10;;;;;;;-142.75;100.00;74938.75;5027890;28;20036;-63
2023/08/25 08:56:18;;;;;;;30.15;19.17;;;;;;;-142.75;100.00;74932.84;5029275;28;20017;-63
2023/08/25 08:58:43;;;;;;;35.03;19.13;;;;;;;-142.75;100.00;74934.81;5028125;28;20025;-62
2023/08/25 09:01:10;;;;;;;29.25;17.98;;;;;;;-142.75;100.00;74917.13;5028467;28;20017;-63
2023/08/25 09:03:38;;;;;;;33.03;19.92;;;;;;;-142.75;100.00;74924.97;5028454;28;20627;-62
2023/08/25 09:06:04;;;;;;;346.85;190.70;;;;;;;-142.75;100.00;74944.66;5028205;28;20017;-63
2023/08/25 09:08:32;;;;;;;374.55;81.95;;;;;;;-142.75;100.00;74952.53;5028533;28;20043;-63
2023/08/25 09:11:03;;;;;;;30.20;18.42;;;;;;;-142.75;100.00;74964.34;5030753;28;20033;-63
2023/08/25 09:13:31;;;;;;;41.50;19.40;;;;;;;-142.75;100.00;74970.25;5028148;28;20026;-63
2023/08/25 09:15:56;;;;;;;31.90;19.55;;;;;;;-142.75;100.00;74960.41;5027949;28;20025;-63
2023/08/25 09:18:22;;;;;;;37.13;19.55;;;;;;;-142.75;100.00;74952.53;5027635;28;20052;-63
2023/08/25 09:20:47;;;;;;;29.88;18.92;;;;;;;-142.75;100.00;74934.81;5035386;28;20017;-63
2023/08/25 09:23:12;;;;;;;31.27;19.92;;;;;;;-142.75;100.00;74932.84;5040786;28;20042;-63
2023/08/25 09:25:41;;;;;;;34.47;19.90;;;;;;;-142.75;100.00;74926.94;5026636;28;20648;-63
2023/08/25 09:28:06;;;;;;;37.75;19.50;;;;;;;-142.75;100.00;74952.53;5028784;28;20029;-63
2023/08/25 09:30:35;;;;;;;30.50;17.95;;;;;;;-142.75;100.00;74926.94;5030086;28;20037;-63
2023/08/25 09:33:05;;;;;;;35.30;19.52;;;;;;;-142.75;100.00;74950.56;5029170;28;20040;-63
2023/08/25 09:35:31;;;;;;;29.27;18.77;;;;;;;-142.75;100.00;74956.47;5027277;28;20053;-63
2023/08/25 09:37:57;;;;;;;31.67;18.38;;;;;;;-142.75;100.00;74980.06;5029268;28;20037;-63
2023/08/25 09:40:22;;;;;;;28.73;17.85;;;;;;;-142.75;100.00;74960.41;5041943;28;20476;-63
2023/08/25 09:42:48;;;;;;;33.00;18.13;;;;;;;-142.75;100.00;74952.53;5028256;28;20487;-64
2023/08/25 09:45:14;;;;;;;31.98;18.25;;;;;;;-142.75;100.00;74952.53;5027574;28;20034;-62
2023/08/25 09:47:43;;;;;;;26.45;16.25;;;;;;;-142.75;100.00;74954.50;5027810;28;20049;-61
2023/08/25 09:50:13;;;;;;;25.95;16.83;;;;;;;-142.75;100.00;74968.28;5027925;28;20035;-62
2023/08/25 09:52:42;;;;;;;26.30;15.75;;;;;;;-142.75;100.00;74991.88;5028000;28;20071;-62
2023/08/25 09:55:09;;;;;;;30.60;18.38;;;;;;;-142.75;100.00;74970.25;5026949;28;20021;-63
2023/08/25 09:57:36;;;;;;;26.17;16.25;;;;;;;-142.75;100.00;74964.34;5044187;28;20029;-62
2023/08/25 10:00:04;;;;;;;20.83;14.80;;;;;;;-142.75;100.00;74962.38;5037012;28;20029;-63
2023/08/25 10:02:31;;;;;;;26.90;17.05;;;;;;;-142.75;100.00;74958.44;5027689;28;20025;-68
2023/08/25 10:04:58;;;;;;;25.30;16.55;;;;;;;-142.75;100.00;74956.47;5027267;28;20029;-62
2023/08/25 10:07:23;;;;;;;25.95;17.50;;;;;;;-142.75;100.00;74932.84;5027508;28;20039;-62
2023/08/25 10:09:48;;;;;;;28.83;17.00;;;;;;;-142.75;100.00;74924.97;5027599;28;20025;-62
2023/08/25 10:12:15;;;;;;;31.83;18.42;;;;;;;-142.75;100.00;74928.91;5027428;28;20048;-61
2023/08/25 10:14:43;;;;;;;29.77;17.75;;;;;;;-142.75;100.00;74909.25;5027100;28;20028;-62
2023/08/25 10:17:14;;;;;;;27.25;17.23;;;;;;;-142.75;100.00;74889.56;5027260;28;20033;-61
2023/08/25 10:19:42;;;;;;;29.02;16.63;;;;;;;-142.75;100.00;74867.91;5027462;28;20538;-62
2023/08/25 10:22:09;;;;;;;26.80;16.98;;;;;;;-142.75;100.00;74875.78;5027315;28;20040;-62
2023/08/25 10:24:35;;;;;;;25.52;16.52;;;;;;;-142.75;100.00;74903.34;5027003;28;20048;-61
2023/08/25 10:27:01;;;;;;;25.42;16.27;;;;;;;-142.75;100.00;74930.88;5041477;28;20395;-62
2023/08/25 10:29:27;;;;;;;24.88;15.65;;;;;;;-142.75;100.00;74944.66;5047055;28;20040;-62
2023/08/25 10:32:02;;;;;;;27.10;16.17;;;;;;;-142.75;100.00;74924.97;5034648;28;20025;-62
2023/08/25 10:34:57;;;;;;;21.20;15.55;;;;;;;-142.75;100.00;74913.19;5040306;28;20496;-62
2023/08/25 10:37:24;;;;;;;30.00;15.82;;;;;;;-142.75;100.00;74932.84;5046212;28;20128;-62
2023/08/25 10:39:51;;;;;;;22.42;14.10;;;;;;;-142.75;100.00;74930.88;5046797;28;20063;-62
2023/08/25 10:42:22;;;;;;;20.98;14.07;;;;;;;-142.75;100.00;74921.06;5046706;28;20041;-62
2023/08/25 10:44:52;;;;;;;25.60;15.68;;;;;;;-142.75;100.00;74944.66;5045280;28;20040;-62
2023/08/25 10:47:20;;;;;;;27.70;14.23;;;;;;;-142.75;100.00;74942.69;5046802;28;20029;-62
2023/08/25 10:49:46;;;;;;;26.38;16.30;;;;;;;-142.75;100.00;74917.13;5034880;28;20483;-62
2023/08/25 10:52:14;;;;;;;27.17;14.85;;;;;;;-142.75;100.00;74869.88;5025449;28;20017;-62